sensor_id;sensor_type;location;lat;lon;timestamp;P1;durP1;ratioP1;P2;durP2;ratioP2
61675;SDS011;47574;52.090;5.244;2024-02-14T00:00:13;4.41;;;4.0;;
61675;SDS011;47574;52.090;5.244;2024-02-14T00:01:49;4.1;;;3.7;;
61675;SDS011;47574;52.090;5.244;2024-02-14T00:05:01;4.91;;;4.41;;
61675;SDS011;47574;52.090;5.244;2024-02-14T00:06:37;4.8;;;4.3;;
61675;SDS011;47574;52.090;5.244;2024-02-14T00:08:13;4.61;;;4.2;;
61675;SDS011;47574;52.090;5.244;2024-02-14T00:09:49;5.2;;;4.7;;
61675;SDS011;47574;52.090;5.244;2024-02-14T00:13:02;5.4;;;4.41;;
61675;SDS011;47574;52.090;5.244;2024-02-14T00:14:38;5.11;;;4.61;;
61675;SDS011;47574;52.090;5.244;2024-02-14T00:16:14;4.7;;;4.41;;
61675;SDS011;47574;52.090;5.244;2024-02-14T00:19:26;6.1;;;5.0;;
61675;SDS011;47574;52.090;5.244;2024-02-14T00:21:02;5.2;;;4.7;;
61675;SDS011;47574;52.090;5.244;2024-02-14T00:22:38;5.0;;;4.61;;
61675;SDS011;47574;52.090;5.244;2024-02-14T00:25:50;4.7;;;4.3;;
61675;SDS011;47574;52.090;5.244;2024-02-14T00:27:27;5.4;;;5.0;;
61675;SDS011;47574;52.090;5.244;2024-02-14T00:29:03;5.8;;;5.2;;
61675;SDS011;47574;52.090;5.244;2024-02-14T00:32:18;5.5;;;5.11;;
61675;SDS011;47574;52.090;5.244;2024-02-14T00:33:55;5.6;;;5.0;;
61675;SDS011;47574;52.090;5.244;2024-02-14T00:35:31;7.7;;;6.5;;
61675;SDS011;47574;52.090;5.244;2024-02-14T00:37:07;6.8;;;6.1;;
61675;SDS011;47574;52.090;5.244;2024-02-14T00:40:19;6.4;;;5.9;;
61675;SDS011;47574;52.090;5.244;2024-02-14T00:41:56;6.4;;;5.9;;
61675;SDS011;47574;52.090;5.244;2024-02-14T00:43:32;7.1;;;6.5;;
61675;SDS011;47574;52.090;5.244;2024-02-14T00:46:45;6.3;;;5.7;;
61675;SDS011;47574;52.090;5.244;2024-02-14T00:48:21;6.6;;;6.1;;
61675;SDS011;47574;52.090;5.244;2024-02-14T00:49:57;7.8;;;7.0;;
61675;SDS011;47574;52.090;5.244;2024-02-14T00:53:09;7.7;;;6.9;;
61675;SDS011;47574;52.090;5.244;2024-02-14T00:54:45;8.1;;;7.3;;
61675;SDS011;47574;52.090;5.244;2024-02-14T00:56:21;8.2;;;7.4;;
61675;SDS011;47574;52.090;5.244;2024-02-14T00:57:57;7.4;;;6.7;;
61675;SDS011;47574;52.090;5.244;2024-02-14T01:01:10;8.71;;;7.4;;
61675;SDS011;47574;52.090;5.244;2024-02-14T01:02:46;9.4;;;7.6;;
61675;SDS011;47574;52.090;5.244;2024-02-14T01:04:22;7.3;;;6.6;;
61675;SDS011;47574;52.090;5.244;2024-02-14T01:07:37;8.0;;;7.2;;
61675;SDS011;47574;52.090;5.244;2024-02-14T01:09:13;10.0;;;9.1;;
61675;SDS011;47574;52.090;5.244;2024-02-14T01:10:49;11.8;;;10.6;;
61675;SDS011;47574;52.090;5.244;2024-02-14T01:14:02;11.8;;;10.6;;
61675;SDS011;47574;52.090;5.244;2024-02-14T01:15:38;12.2;;;11.0;;
61675;SDS011;47574;52.090;5.244;2024-02-14T01:17:14;10.6;;;9.6;;
61675;SDS011;47574;52.090;5.244;2024-02-14T01:18:50;11.4;;;9.31;;
61675;SDS011;47574;52.090;5.244;2024-02-14T01:22:02;13.6;;;11.8;;
61675;SDS011;47574;52.090;5.244;2024-02-14T01:23:38;12.8;;;11.6;;
61675;SDS011;47574;52.090;5.244;2024-02-14T01:25:14;14.7;;;13.2;;
61675;SDS011;47574;52.090;5.244;2024-02-14T01:28:26;14.1;;;11.8;;
61675;SDS011;47574;52.090;5.244;2024-02-14T01:30:03;14.8;;;13.4;;
61675;SDS011;47574;52.090;5.244;2024-02-14T01:31:40;15.3;;;13.9;;
61675;SDS011;47574;52.090;5.244;2024-02-14T01:34:52;15.3;;;13.9;;
61675;SDS011;47574;52.090;5.244;2024-02-14T01:36:28;17.0;;;15.3;;
61675;SDS011;47574;52.090;5.244;2024-02-14T01:38:04;18.61;;;16.5;;
61675;SDS011;47574;52.090;5.244;2024-02-14T01:41:16;18.11;;;16.2;;
61675;SDS011;47574;52.090;5.244;2024-02-14T01:42:52;22.9;;;20.6;;
61675;SDS011;47574;52.090;5.244;2024-02-14T01:44:29;21.1;;;19.0;;
61675;SDS011;47574;52.090;5.244;2024-02-14T01:46:05;23.3;;;20.8;;
61675;SDS011;47574;52.090;5.244;2024-02-14T01:49:18;23.0;;;20.9;;
61675;SDS011;47574;52.090;5.244;2024-02-14T01:50:54;22.7;;;20.6;;
61675;SDS011;47574;52.090;5.244;2024-02-14T01:52:30;21.5;;;19.3;;
61675;SDS011;47574;52.090;5.244;2024-02-14T01:55:42;21.4;;;19.3;;
61675;SDS011;47574;52.090;5.244;2024-02-14T01:57:18;24.9;;;21.3;;
61675;SDS011;47574;52.090;5.244;2024-02-14T01:58:54;26.6;;;23.9;;
61675;SDS011;47574;52.090;5.244;2024-02-14T02:02:09;26.7;;;23.9;;
61675;SDS011;47574;52.090;5.244;2024-02-14T02:03:48;25.0;;;22.3;;
61675;SDS011;47574;52.090;5.244;2024-02-14T02:05:24;22.4;;;20.2;;
61675;SDS011;47574;52.090;5.244;2024-02-14T02:07:00;25.6;;;22.9;;
61675;SDS011;47574;52.090;5.244;2024-02-14T02:10:12;26.1;;;23.3;;
61675;SDS011;47574;52.090;5.244;2024-02-14T02:11:49;24.4;;;21.8;;
61675;SDS011;47574;52.090;5.244;2024-02-14T02:13:25;23.7;;;21.4;;
61675;SDS011;47574;52.090;5.244;2024-02-14T02:16:38;25.6;;;22.8;;
61675;SDS011;47574;52.090;5.244;2024-02-14T02:18:14;27.3;;;24.5;;
61675;SDS011;47574;52.090;5.244;2024-02-14T02:19:52;24.1;;;21.8;;
61675;SDS011;47574;52.090;5.244;2024-02-14T02:23:05;27.3;;;24.5;;
61675;SDS011;47574;52.090;5.244;2024-02-14T02:24:41;28.4;;;25.6;;
61675;SDS011;47574;52.090;5.244;2024-02-14T02:26:17;28.7;;;25.9;;
61675;SDS011;47574;52.090;5.244;2024-02-14T02:27:53;26.8;;;24.0;;
61675;SDS011;47574;52.090;5.244;2024-02-14T02:31:09;29.4;;;26.2;;
61675;SDS011;47574;52.090;5.244;2024-02-14T02:32:45;31.4;;;27.2;;
61675;SDS011;47574;52.090;5.244;2024-02-14T02:34:21;26.2;;;23.6;;
61675;SDS011;47574;52.090;5.244;2024-02-14T02:37:34;24.7;;;22.3;;
61675;SDS011;47574;52.090;5.244;2024-02-14T02:39:11;27.8;;;24.8;;
61675;SDS011;47574;52.090;5.244;2024-02-14T02:40:47;27.8;;;25.0;;
61675;SDS011;47574;52.090;5.244;2024-02-14T02:43:59;29.7;;;26.3;;
61675;SDS011;47574;52.090;5.244;2024-02-14T02:45:36;29.2;;;26.2;;
61675;SDS011;47574;52.090;5.244;2024-02-14T02:47:12;27.3;;;24.6;;
61675;SDS011;47574;52.090;5.244;2024-02-14T02:48:48;31.3;;;28.0;;
61675;SDS011;47574;52.090;5.244;2024-02-14T02:52:00;26.5;;;24.0;;
61675;SDS011;47574;52.090;5.244;2024-02-14T02:53:36;26.0;;;23.4;;
61675;SDS011;47574;52.090;5.244;2024-02-14T02:55:12;24.9;;;22.3;;
61675;SDS011;47574;52.090;5.244;2024-02-14T02:58:24;25.3;;;22.9;;
61675;SDS011;47574;52.090;5.244;2024-02-14T03:00:00;26.5;;;23.8;;
61675;SDS011;47574;52.090;5.244;2024-02-14T03:01:37;26.3;;;23.7;;
61675;SDS011;47574;52.090;5.244;2024-02-14T03:04:49;27.8;;;24.9;;
61675;SDS011;47574;52.090;5.244;2024-02-14T03:06:25;26.3;;;23.6;;
61675;SDS011;47574;52.090;5.244;2024-02-14T03:08:01;24.6;;;22.4;;
61675;SDS011;47574;52.090;5.244;2024-02-14T03:11:14;26.2;;;23.5;;
61675;SDS011;47574;52.090;5.244;2024-02-14T03:12:50;24.2;;;21.9;;
61675;SDS011;47574;52.090;5.244;2024-02-14T03:14:28;25.9;;;23.4;;
61675;SDS011;47574;52.090;5.244;2024-02-14T03:16:05;27.0;;;24.3;;
61675;SDS011;47574;52.090;5.244;2024-02-14T03:19:17;30.0;;;26.9;;
61675;SDS011;47574;52.090;5.244;2024-02-14T03:20:53;29.4;;;26.3;;
61675;SDS011;47574;52.090;5.244;2024-02-14T03:22:29;29.3;;;26.4;;
61675;SDS011;47574;52.090;5.244;2024-02-14T03:25:41;29.5;;;26.4;;
61675;SDS011;47574;52.090;5.244;2024-02-14T03:27:18;29.3;;;26.1;;
61675;SDS011;47574;52.090;5.244;2024-02-14T03:28:54;29.4;;;26.4;;
61675;SDS011;47574;52.090;5.244;2024-02-14T03:32:07;27.0;;;24.1;;
61675;SDS011;47574;52.090;5.244;2024-02-14T03:33:43;28.0;;;25.0;;
61675;SDS011;47574;52.090;5.244;2024-02-14T03:35:19;30.9;;;23.8;;
61675;SDS011;47574;52.090;5.244;2024-02-14T03:36:55;28.9;;;24.4;;
61675;SDS011;47574;52.090;5.244;2024-02-14T03:40:08;27.4;;;23.4;;
61675;SDS011;47574;52.090;5.244;2024-02-14T03:41:44;26.6;;;23.3;;
61675;SDS011;47574;52.090;5.244;2024-02-14T03:43:20;28.5;;;23.8;;
61675;SDS011;47574;52.090;5.244;2024-02-14T03:46:32;28.4;;;22.9;;
61675;SDS011;47574;52.090;5.244;2024-02-14T03:48:09;31.7;;;22.7;;
61675;SDS011;47574;52.090;5.244;2024-02-14T03:49:45;29.8;;;23.6;;
61675;SDS011;47574;52.090;5.244;2024-02-14T03:52:59;28.4;;;23.3;;
61675;SDS011;47574;52.090;5.244;2024-02-14T03:54:35;29.7;;;23.0;;
61675;SDS011;47574;52.090;5.244;2024-02-14T03:56:11;31.9;;;23.2;;
61675;SDS011;47574;52.090;5.244;2024-02-14T03:59:23;32.4;;;23.3;;
61675;SDS011;47574;52.090;5.244;2024-02-14T04:00:59;27.3;;;22.6;;
61675;SDS011;47574;52.090;5.244;2024-02-14T04:02:36;27.6;;;21.4;;
61675;SDS011;47574;52.090;5.244;2024-02-14T04:04:12;30.0;;;22.3;;
61675;SDS011;47574;52.090;5.244;2024-02-14T04:07:24;28.4;;;21.1;;
61675;SDS011;47574;52.090;5.244;2024-02-14T04:09:00;32.21;;;23.5;;
61675;SDS011;47574;52.090;5.244;2024-02-14T04:10:36;30.9;;;22.1;;
61675;SDS011;47574;52.090;5.244;2024-02-14T04:13:48;30.1;;;21.2;;
61675;SDS011;47574;52.090;5.244;2024-02-14T04:15:24;26.7;;;19.5;;
61675;SDS011;47574;52.090;5.244;2024-02-14T04:17:00;31.0;;;21.0;;
61675;SDS011;47574;52.090;5.244;2024-02-14T04:20:13;27.9;;;20.11;;
61675;SDS011;47574;52.090;5.244;2024-02-14T04:21:49;30.2;;;20.5;;
61675;SDS011;47574;52.090;5.244;2024-02-14T04:23:25;25.5;;;19.41;;
61675;SDS011;47574;52.090;5.244;2024-02-14T04:26:37;32.0;;;20.3;;
61675;SDS011;47574;52.090;5.244;2024-02-14T04:28:13;28.8;;;19.7;;
61675;SDS011;47574;52.090;5.244;2024-02-14T04:29:49;28.5;;;19.5;;
61675;SDS011;47574;52.090;5.244;2024-02-14T04:31:25;28.5;;;19.5;;
61675;SDS011;47574;52.090;5.244;2024-02-14T04:34:38;29.2;;;18.7;;
61675;SDS011;47574;52.090;5.244;2024-02-14T04:36:14;32.1;;;20.0;;
61675;SDS011;47574;52.090;5.244;2024-02-14T04:37:50;29.8;;;19.8;;
61675;SDS011;47574;52.090;5.244;2024-02-14T04:41:02;28.1;;;18.7;;
61675;SDS011;47574;52.090;5.244;2024-02-14T04:42:38;26.1;;;17.41;;
61675;SDS011;47574;52.090;5.244;2024-02-14T04:44:14;27.8;;;18.7;;
61675;SDS011;47574;52.090;5.244;2024-02-14T04:47:26;28.3;;;19.0;;
61675;SDS011;47574;52.090;5.244;2024-02-14T04:49:03;24.7;;;18.11;;
61675;SDS011;47574;52.090;5.244;2024-02-14T04:50:39;28.2;;;18.8;;
61675;SDS011;47574;52.090;5.244;2024-02-14T04:52:15;28.6;;;18.8;;
61675;SDS011;47574;52.090;5.244;2024-02-14T04:55:27;27.5;;;19.41;;
61675;SDS011;47574;52.090;5.244;2024-02-14T04:57:03;26.6;;;18.91;;
61675;SDS011;47574;52.090;5.244;2024-02-14T04:58:39;26.7;;;18.41;;
61675;SDS011;47574;52.090;5.244;2024-02-14T05:01:52;25.3;;;17.91;;
61675;SDS011;47574;52.090;5.244;2024-02-14T05:03:28;26.6;;;18.61;;
61675;SDS011;47574;52.090;5.244;2024-02-14T05:05:05;27.7;;;18.41;;
61675;SDS011;47574;52.090;5.244;2024-02-14T05:08:17;26.5;;;18.0;;
61675;SDS011;47574;52.090;5.244;2024-02-14T05:09:53;22.7;;;17.61;;
61675;SDS011;47574;52.090;5.244;2024-02-14T05:11:29;27.3;;;19.5;;
61675;SDS011;47574;52.090;5.244;2024-02-14T05:14:41;26.2;;;19.41;;
61675;SDS011;47574;52.090;5.244;2024-02-14T05:16:17;24.1;;;18.7;;
61675;SDS011;47574;52.090;5.244;2024-02-14T05:17:53;23.6;;;17.41;;
61675;SDS011;47574;52.090;5.244;2024-02-14T05:19:30;27.2;;;19.7;;
61675;SDS011;47574;52.090;5.244;2024-02-14T05:22:43;29.7;;;20.41;;
61675;SDS011;47574;52.090;5.244;2024-02-14T05:24:19;26.4;;;21.0;;
61675;SDS011;47574;52.090;5.244;2024-02-14T05:25:55;25.0;;;21.2;;
61675;SDS011;47574;52.090;5.244;2024-02-14T05:29:07;28.3;;;22.3;;
61675;SDS011;47574;52.090;5.244;2024-02-14T05:30:43;29.8;;;21.7;;
61675;SDS011;47574;52.090;5.244;2024-02-14T05:32:19;27.4;;;22.1;;
61675;SDS011;47574;52.090;5.244;2024-02-14T05:35:32;26.8;;;21.0;;
61675;SDS011;47574;52.090;5.244;2024-02-14T05:37:08;32.3;;;23.3;;
61675;SDS011;47574;52.090;5.244;2024-02-14T05:38:44;29.5;;;22.9;;
61675;SDS011;47574;52.090;5.244;2024-02-14T05:41:56;28.6;;;22.7;;
61675;SDS011;47574;52.090;5.244;2024-02-14T05:43:32;24.9;;;20.11;;
61675;SDS011;47574;52.090;5.244;2024-02-14T05:45:08;28.8;;;22.7;;
61675;SDS011;47574;52.090;5.244;2024-02-14T05:46:45;30.0;;;23.0;;
61675;SDS011;47574;52.090;5.244;2024-02-14T05:49:57;24.4;;;19.7;;
61675;SDS011;47574;52.090;5.244;2024-02-14T05:51:34;24.4;;;19.7;;
61675;SDS011;47574;52.090;5.244;2024-02-14T05:53:10;25.2;;;20.7;;
61675;SDS011;47574;52.090;5.244;2024-02-14T05:56:22;24.0;;;19.5;;
61675;SDS011;47574;52.090;5.244;2024-02-14T05:57:58;26.8;;;22.2;;
61675;SDS011;47574;52.090;5.244;2024-02-14T05:59:34;25.4;;;21.0;;
61675;SDS011;47574;52.090;5.244;2024-02-14T06:02:46;24.1;;;21.6;;
61675;SDS011;47574;52.090;5.244;2024-02-14T06:04:22;26.1;;;22.0;;
61675;SDS011;47574;52.090;5.244;2024-02-14T06:05:59;24.0;;;21.4;;
61675;SDS011;47574;52.090;5.244;2024-02-14T06:07:35;26.2;;;21.4;;
61675;SDS011;47574;52.090;5.244;2024-02-14T06:10:47;24.9;;;20.7;;
61675;SDS011;47574;52.090;5.244;2024-02-14T06:12:23;23.7;;;21.2;;
61675;SDS011;47574;52.090;5.244;2024-02-14T06:13:59;24.0;;;20.11;;
61675;SDS011;47574;52.090;5.244;2024-02-14T06:17:11;24.0;;;21.5;;
61675;SDS011;47574;52.090;5.244;2024-02-14T06:18:47;21.7;;;19.5;;
61675;SDS011;47574;52.090;5.244;2024-02-14T06:20:23;22.8;;;20.41;;
61675;SDS011;47574;52.090;5.244;2024-02-14T06:23:35;26.6;;;21.5;;
61675;SDS011;47574;52.090;5.244;2024-02-14T06:25:11;21.0;;;18.91;;
61675;SDS011;47574;52.090;5.244;2024-02-14T06:26:47;23.9;;;21.2;;
61675;SDS011;47574;52.090;5.244;2024-02-14T06:29:59;24.6;;;22.1;;
61675;SDS011;47574;52.090;5.244;2024-02-14T06:31:35;26.0;;;23.1;;
61675;SDS011;47574;52.090;5.244;2024-02-14T06:33:11;23.5;;;21.1;;
61675;SDS011;47574;52.090;5.244;2024-02-14T06:34:47;28.5;;;25.5;;
61675;SDS011;47574;52.090;5.244;2024-02-14T06:38:00;25.8;;;23.1;;
61675;SDS011;47574;52.090;5.244;2024-02-14T06:39:36;30.7;;;27.5;;
61675;SDS011;47574;52.090;5.244;2024-02-14T06:41:12;33.9;;;28.2;;
61675;SDS011;47574;52.090;5.244;2024-02-14T06:44:24;30.8;;;27.4;;
61675;SDS011;47574;52.090;5.244;2024-02-14T06:46:00;30.6;;;27.3;;
61675;SDS011;47574;52.090;5.244;2024-02-14T06:47:36;31.7;;;27.8;;
61675;SDS011;47574;52.090;5.244;2024-02-14T06:50:48;33.6;;;29.5;;
61675;SDS011;47574;52.090;5.244;2024-02-14T06:52:25;31.8;;;27.9;;
61675;SDS011;47574;52.090;5.244;2024-02-14T06:54:02;31.4;;;26.8;;
61675;SDS011;47574;52.090;5.244;2024-02-14T06:57:14;35.9;;;30.2;;
61675;SDS011;47574;52.090;5.244;2024-02-14T06:58:50;33.6;;;29.9;;
61675;SDS011;47574;52.090;5.244;2024-02-14T07:00:26;35.31;;;31.5;;
61675;SDS011;47574;52.090;5.244;2024-02-14T07:05:16;38.5;;;32.5;;
61675;SDS011;47574;52.090;5.244;2024-02-14T07:06:52;41.2;;;34.71;;
61675;SDS011;47574;52.090;5.244;2024-02-14T07:08:28;33.1;;;29.6;;
61675;SDS011;47574;52.090;5.244;2024-02-14T07:11:42;33.71;;;30.0;;
61675;SDS011;47574;52.090;5.244;2024-02-14T07:13:18;38.9;;;32.71;;
61675;SDS011;47574;52.090;5.244;2024-02-14T07:14:54;39.0;;;33.4;;
61675;SDS011;47574;52.090;5.244;2024-02-14T07:18:06;44.5;;;36.1;;
61675;SDS011;47574;52.090;5.244;2024-02-14T07:19:42;47.0;;;35.5;;
61675;SDS011;47574;52.090;5.244;2024-02-14T07:21:18;40.81;;;31.7;;
61675;SDS011;47574;52.090;5.244;2024-02-14T07:22:54;38.9;;;32.6;;
61675;SDS011;47574;52.090;5.244;2024-02-14T07:26:06;35.1;;;30.1;;
61675;SDS011;47574;52.090;5.244;2024-02-14T07:27:43;39.31;;;32.6;;
61675;SDS011;47574;52.090;5.244;2024-02-14T07:29:19;37.1;;;31.2;;
61675;SDS011;47574;52.090;5.244;2024-02-14T07:32:31;38.9;;;31.7;;
61675;SDS011;47574;52.090;5.244;2024-02-14T07:34:07;39.6;;;32.4;;
61675;SDS011;47574;52.090;5.244;2024-02-14T07:35:43;38.5;;;31.7;;
61675;SDS011;47574;52.090;5.244;2024-02-14T07:38:55;40.5;;;33.3;;
61675;SDS011;47574;52.090;5.244;2024-02-14T07:40:31;37.0;;;31.4;;
61675;SDS011;47574;52.090;5.244;2024-02-14T07:42:10;38.31;;;31.1;;
61675;SDS011;47574;52.090;5.244;2024-02-14T07:45:23;36.81;;;31.4;;
61675;SDS011;47574;52.090;5.244;2024-02-14T07:46:59;36.81;;;31.4;;
61675;SDS011;47574;52.090;5.244;2024-02-14T07:48:35;32.71;;;29.0;;
61675;SDS011;47574;52.090;5.244;2024-02-14T07:50:11;32.71;;;29.0;;
61675;SDS011;47574;52.090;5.244;2024-02-14T07:53:23;37.71;;;31.0;;
61675;SDS011;47574;52.090;5.244;2024-02-14T07:54:59;37.71;;;31.0;;
61675;SDS011;47574;52.090;5.244;2024-02-14T07:56:35;33.0;;;28.7;;
61675;SDS011;47574;52.090;5.244;2024-02-14T07:59:48;30.3;;;27.0;;
61675;SDS011;47574;52.090;5.244;2024-02-14T08:01:24;31.5;;;28.2;;
61675;SDS011;47574;52.090;5.244;2024-02-14T08:03:01;29.3;;;26.2;;
61675;SDS011;47574;52.090;5.244;2024-02-14T08:06:13;28.0;;;25.2;;
61675;SDS011;47574;52.090;5.244;2024-02-14T08:07:49;27.9;;;25.1;;
61675;SDS011;47574;52.090;5.244;2024-02-14T08:09:25;28.3;;;25.4;;
61675;SDS011;47574;52.090;5.244;2024-02-14T08:11:01;28.0;;;24.9;;
61675;SDS011;47574;52.090;5.244;2024-02-14T08:14:14;33.71;;;27.9;;
61675;SDS011;47574;52.090;5.244;2024-02-14T08:15:53;31.7;;;28.3;;
61675;SDS011;47574;52.090;5.244;2024-02-14T08:17:29;31.5;;;26.6;;
61675;SDS011;47574;52.090;5.244;2024-02-14T08:20:41;30.4;;;26.6;;
61675;SDS011;47574;52.090;5.244;2024-02-14T08:22:17;28.0;;;25.0;;
61675;SDS011;47574;52.090;5.244;2024-02-14T08:23:53;31.0;;;25.8;;
61675;SDS011;47574;52.090;5.244;2024-02-14T08:27:06;33.3;;;25.9;;
61675;SDS011;47574;52.090;5.244;2024-02-14T08:28:42;29.3;;;25.5;;
61675;SDS011;47574;52.090;5.244;2024-02-14T08:30:18;29.3;;;26.3;;
61675;SDS011;47574;52.090;5.244;2024-02-14T08:31:55;28.6;;;25.5;;
61675;SDS011;47574;52.090;5.244;2024-02-14T08:35:07;28.1;;;25.0;;
61675;SDS011;47574;52.090;5.244;2024-02-14T08:36:44;28.9;;;26.0;;
61675;SDS011;47574;52.090;5.244;2024-02-14T08:38:20;31.4;;;26.7;;
61675;SDS011;47574;52.090;5.244;2024-02-14T08:41:32;25.2;;;22.6;;
61675;SDS011;47574;52.090;5.244;2024-02-14T08:43:08;27.4;;;24.5;;
61675;SDS011;47574;52.090;5.244;2024-02-14T08:44:44;27.8;;;24.9;;
61675;SDS011;47574;52.090;5.244;2024-02-14T08:47:56;31.7;;;28.0;;
61675;SDS011;47574;52.090;5.244;2024-02-14T08:49:36;31.5;;;28.1;;
61675;SDS011;47574;52.090;5.244;2024-02-14T08:51:12;25.0;;;22.3;;
61675;SDS011;47574;52.090;5.244;2024-02-14T08:54:24;31.8;;;26.1;;
61675;SDS011;47574;52.090;5.244;2024-02-14T08:56:00;30.4;;;27.1;;
61675;SDS011;47574;52.090;5.244;2024-02-14T08:57:36;30.6;;;27.4;;
61675;SDS011;47574;52.090;5.244;2024-02-14T08:59:12;33.4;;;29.0;;
61675;SDS011;47574;52.090;5.244;2024-02-14T09:02:24;32.0;;;28.5;;
61675;SDS011;47574;52.090;5.244;2024-02-14T09:04:00;33.21;;;29.5;;
61675;SDS011;47574;52.090;5.244;2024-02-14T09:05:37;32.9;;;27.5;;
61675;SDS011;47574;52.090;5.244;2024-02-14T09:08:49;31.3;;;27.4;;
61675;SDS011;47574;52.090;5.244;2024-02-14T09:10:25;29.9;;;26.7;;
61675;SDS011;47574;52.090;5.244;2024-02-14T09:12:01;27.9;;;25.0;;
61675;SDS011;47574;52.090;5.244;2024-02-14T09:15:13;27.0;;;24.1;;
61675;SDS011;47574;52.090;5.244;2024-02-14T09:18:25;28.5;;;24.8;;
61675;SDS011;47574;52.090;5.244;2024-02-14T09:20:01;27.9;;;24.3;;
61675;SDS011;47574;52.090;5.244;2024-02-14T09:23:14;27.4;;;24.3;;
61675;SDS011;47574;52.090;5.244;2024-02-14T09:24:50;27.0;;;24.1;;
61675;SDS011;47574;52.090;5.244;2024-02-14T09:26:26;27.8;;;23.9;;
61675;SDS011;47574;52.090;5.244;2024-02-14T09:29:38;30.7;;;26.1;;
61675;SDS011;47574;52.090;5.244;2024-02-14T09:31:17;29.1;;;25.9;;
61675;SDS011;47574;52.090;5.244;2024-02-14T09:32:54;32.1;;;27.2;;
61675;SDS011;47574;52.090;5.244;2024-02-14T09:36:09;34.1;;;28.9;;
61675;SDS011;47574;52.090;5.244;2024-02-14T09:37:45;31.1;;;27.7;;
61675;SDS011;47574;52.090;5.244;2024-02-14T09:39:22;32.8;;;29.4;;
61675;SDS011;47574;52.090;5.244;2024-02-14T09:40:58;35.4;;;31.5;;
61675;SDS011;47574;52.090;5.244;2024-02-14T09:44:24;36.6;;;30.3;;
61675;SDS011;47574;52.090;5.244;2024-02-14T09:46:03;40.6;;;33.21;;
61675;SDS011;47574;52.090;5.244;2024-02-14T09:47:40;34.81;;;30.6;;
61675;SDS011;47574;52.090;5.244;2024-02-14T09:50:55;37.9;;;32.3;;
61675;SDS011;47574;52.090;5.244;2024-02-14T09:52:32;35.0;;;29.6;;
61675;SDS011;47574;52.090;5.244;2024-02-14T09:54:10;35.81;;;31.9;;
61675;SDS011;47574;52.090;5.244;2024-02-14T09:55:46;34.0;;;30.4;;
61675;SDS011;47574;52.090;5.244;2024-02-14T09:59:01;39.31;;;31.9;;
61675;SDS011;47574;52.090;5.244;2024-02-14T10:00:38;33.1;;;29.4;;
61675;SDS011;47574;52.090;5.244;2024-02-14T10:02:14;32.0;;;28.5;;
61675;SDS011;47574;52.090;5.244;2024-02-14T10:05:28;33.9;;;29.1;;
61675;SDS011;47574;52.090;5.244;2024-02-14T10:07:04;33.4;;;27.7;;
61675;SDS011;47574;52.090;5.244;2024-02-14T10:08:40;25.9;;;23.1;;
61675;SDS011;47574;52.090;5.244;2024-02-14T10:10:16;25.2;;;22.5;;
61675;SDS011;47574;52.090;5.244;2024-02-14T10:13:29;25.6;;;22.9;;
61675;SDS011;47574;52.090;5.244;2024-02-14T10:15:05;25.3;;;22.6;;
61675;SDS011;47574;52.090;5.244;2024-02-14T10:16:42;25.4;;;21.2;;
61675;SDS011;47574;52.090;5.244;2024-02-14T10:19:54;20.6;;;18.61;;
61675;SDS011;47574;52.090;5.244;2024-02-14T10:21:31;21.8;;;19.5;;
61675;SDS011;47574;52.090;5.244;2024-02-14T10:23:07;20.9;;;18.61;;
61675;SDS011;47574;52.090;5.244;2024-02-14T10:26:21;21.2;;;19.0;;
61675;SDS011;47574;52.090;5.244;2024-02-14T10:28:03;25.3;;;21.0;;
61675;SDS011;47574;52.090;5.244;2024-02-14T10:29:39;20.6;;;18.41;;
61675;SDS011;47574;52.090;5.244;2024-02-14T10:31:20;22.6;;;20.2;;
61675;SDS011;47574;52.090;5.244;2024-02-14T10:34:34;24.1;;;19.3;;
61675;SDS011;47574;52.090;5.244;2024-02-14T10:36:13;19.5;;;17.61;;
61675;SDS011;47574;52.090;5.244;2024-02-14T10:37:50;19.3;;;17.2;;
61675;SDS011;47574;52.090;5.244;2024-02-14T10:41:05;20.7;;;18.61;;
61675;SDS011;47574;52.090;5.244;2024-02-14T10:42:41;22.5;;;19.2;;
61675;SDS011;47574;52.090;5.244;2024-02-14T10:44:17;20.8;;;18.7;;
61675;SDS011;47574;52.090;5.244;2024-02-14T10:45:53;21.7;;;19.5;;
61675;SDS011;47574;52.090;5.244;2024-02-14T10:49:11;22.6;;;20.3;;
61675;SDS011;47574;52.090;5.244;2024-02-14T10:50:48;22.5;;;19.7;;
61675;SDS011;47574;52.090;5.244;2024-02-14T10:52:26;23.4;;;21.0;;
61675;SDS011;47574;52.090;5.244;2024-02-14T10:55:47;22.1;;;19.8;;
61675;SDS011;47574;52.090;5.244;2024-02-14T10:57:24;21.5;;;19.0;;
61675;SDS011;47574;52.090;5.244;2024-02-14T10:59:01;18.5;;;16.7;;
61675;SDS011;47574;52.090;5.244;2024-02-14T11:00:40;22.4;;;18.2;;
61675;SDS011;47574;52.090;5.244;2024-02-14T11:03:55;20.5;;;18.41;;
61675;SDS011;47574;52.090;5.244;2024-02-14T11:05:31;23.0;;;19.11;;
61675;SDS011;47574;52.090;5.244;2024-02-14T11:07:08;21.3;;;19.11;;
61675;SDS011;47574;52.090;5.244;2024-02-14T11:10:37;22.5;;;20.0;;
61675;SDS011;47574;52.090;5.244;2024-02-14T11:12:13;20.7;;;18.5;;
61675;SDS011;47574;52.090;5.244;2024-02-14T11:13:52;19.41;;;17.5;;
61675;SDS011;47574;52.090;5.244;2024-02-14T11:15:28;19.91;;;17.91;;
61675;SDS011;47574;52.090;5.244;2024-02-14T11:18:44;18.5;;;16.7;;
61675;SDS011;47574;52.090;5.244;2024-02-14T11:20:21;21.3;;;16.5;;
61675;SDS011;47574;52.090;5.244;2024-02-14T11:22:10;18.0;;;16.2;;
61675;SDS011;47574;52.090;5.244;2024-02-14T11:23:52;17.11;;;15.5;;
61675;SDS011;47574;52.090;5.244;2024-02-14T11:27:09;17.7;;;15.8;;
61675;SDS011;47574;52.090;5.244;2024-02-14T11:28:46;17.7;;;15.8;;
61675;SDS011;47574;52.090;5.244;2024-02-14T11:30:28;17.11;;;15.3;;
61675;SDS011;47574;52.090;5.244;2024-02-14T11:32:06;19.0;;;16.0;;
61675;SDS011;47574;52.090;5.244;2024-02-14T11:35:19;16.11;;;14.5;;
61675;SDS011;47574;52.090;5.244;2024-02-14T11:36:55;21.2;;;16.7;;
61675;SDS011;47574;52.090;5.244;2024-02-14T11:38:35;17.91;;;16.0;;
61675;SDS011;47574;52.090;5.244;2024-02-14T11:41:47;18.8;;;17.0;;
61675;SDS011;47574;52.090;5.244;2024-02-14T11:43:23;19.41;;;17.3;;
61675;SDS011;47574;52.090;5.244;2024-02-14T11:45:00;18.3;;;16.5;;
61675;SDS011;47574;52.090;5.244;2024-02-14T11:46:36;15.6;;;14.0;;
61675;SDS011;47574;52.090;5.244;2024-02-14T11:49:49;18.41;;;15.6;;
61675;SDS011;47574;52.090;5.244;2024-02-14T11:51:26;18.11;;;15.1;;
61675;SDS011;47574;52.090;5.244;2024-02-14T11:53:03;17.7;;;15.9;;
61675;SDS011;47574;52.090;5.244;2024-02-14T11:56:15;17.7;;;16.0;;
61675;SDS011;47574;52.090;5.244;2024-02-14T11:57:51;19.41;;;16.8;;
61675;SDS011;47574;52.090;5.244;2024-02-14T11:59:28;20.0;;;17.7;;
61675;SDS011;47574;52.090;5.244;2024-02-14T12:02:41;20.41;;;18.41;;
61675;SDS011;47574;52.090;5.244;2024-02-14T12:04:17;19.3;;;17.2;;
61675;SDS011;47574;52.090;5.244;2024-02-14T12:05:54;20.8;;;18.7;;
61675;SDS011;47574;52.090;5.244;2024-02-14T12:07:31;20.5;;;18.3;;
61675;SDS011;47574;52.090;5.244;2024-02-14T12:10:45;19.5;;;17.5;;
61675;SDS011;47574;52.090;5.244;2024-02-14T12:12:22;20.5;;;18.0;;
61675;SDS011;47574;52.090;5.244;2024-02-14T12:14:00;21.0;;;18.2;;
61675;SDS011;47574;52.090;5.244;2024-02-14T12:17:15;17.41;;;15.7;;
61675;SDS011;47574;52.090;5.244;2024-02-14T12:19:00;17.41;;;15.5;;
61675;SDS011;47574;52.090;5.244;2024-02-14T12:20:40;20.6;;;17.41;;
61675;SDS011;47574;52.090;5.244;2024-02-14T12:22:17;17.61;;;15.8;;
61675;SDS011;47574;52.090;5.244;2024-02-14T12:25:34;16.8;;;15.1;;
61675;SDS011;47574;52.090;5.244;2024-02-14T12:27:10;17.5;;;15.7;;
61675;SDS011;47574;52.090;5.244;2024-02-14T12:28:46;17.7;;;16.0;;
61675;SDS011;47574;52.090;5.244;2024-02-14T12:32:04;18.7;;;16.3;;
61675;SDS011;47574;52.090;5.244;2024-02-14T12:33:40;17.8;;;15.9;;
61675;SDS011;47574;52.090;5.244;2024-02-14T12:35:16;19.7;;;17.7;;
61675;SDS011;47574;52.090;5.244;2024-02-14T12:36:52;18.11;;;16.3;;
61675;SDS011;47574;52.090;5.244;2024-02-14T12:40:05;16.61;;;14.9;;